Time;durP1;ratioP1;P1;durP2;ratioP2;P2;SDS_P1;SDS_P2;PMS_P1;PMS_P2;Temp;Humidity;BMP_temperature;BMP_pressure;BME280_temperature;BME280_humidity;BME280_pressure;Samples;Min_cycle;Max_cycle;Signal;HPM_P1;HPM_P2
2021/07/20 00:01:19;;;;;;;;;14.67;14.33;;;;;;;;5055092;28;50995;-58
2021/07/20 00:03:45;;;;;;;;;12.00;11.33;;;;;;;;5070608;28;51251;-57
2021/07/20 00:06:10;;;;;;;;;14.67;13.67;;;;;;;;5071830;27;51660;-57
2021/07/20 00:08:36;;;;;;;;;17.00;17.00;;;;;;;;5072132;27;50986;-58
2021/07/20 00:11:02;;;;;;;;;13.33;13.33;;;;;;;;5066423;27;51491;-57
2021/07/20 00:13:27;;;;;;;;;13.00;12.67;;;;;;;;5070796;28;51365;-57
2021/07/20 00:15:55;;;;;;;;;13.00;12.33;;;;;;;;5058364;27;51247;-57
2021/07/20 00:18:28;;;;;;;;;13.00;12.00;;;;;;;;5059765;28;51162;-58
2021/07/20 00:20:53;;;;;;;;;16.33;14.00;;;;;;;;5072219;28;50898;-57
2021/07/20 00:23:19;;;;;;;;;14.33;14.33;;;;;;;;5072021;27;51222;-61
2021/07/20 00:25:47;;;;;;;;;17.33;16.00;;;;;;;;5072462;27;51275;-59
2021/07/20 00:28:12;;;;;;;;;15.67;15.67;;;;;;;;5068767;28;51126;-59
2021/07/20 00:30:38;;;;;;;;;14.67;14.33;;;;;;;;5071882;27;51070;-59
2021/07/20 00:33:03;;;;;;;;;15.67;15.67;;;;;;;;5075875;27;51281;-58
2021/07/20 00:35:28;;;;;;;;;12.33;10.33;;;;;;;;5075611;27;51935;-59
2021/07/20 00:37:53;;;;;;;;;15.67;15.00;;;;;;;;5068031;27;50993;-59
2021/07/20 00:40:19;;;;;;;;;13.00;13.00;;;;;;;;5075854;28;51083;-58
2021/07/20 00:42:45;;;;;;;;;12.00;11.00;;;;;;;;5075681;27;51314;-58
2021/07/20 00:45:12;;;;;;;;;14.33;14.00;;;;;;;;5075266;27;50969;-58
2021/07/20 00:47:38;;;;;;;;;13.33;13.00;;;;;;;;5074079;27;50831;-58
2021/07/20 00:50:04;;;;;;;;;17.00;15.00;;;;;;;;5075589;27;50905;-57
2021/07/20 00:52:29;;;;;;;;;13.00;13.00;;;;;;;;5075460;27;51317;-57
2021/07/20 00:54:55;;;;;;;;;16.00;15.00;;;;;;;;5075287;27;51024;-57
2021/07/20 00:57:21;;;;;;;;;15.33;15.33;;;;;;;;5075175;28;51000;-57
2021/07/20 00:59:47;;;;;;;;;12.67;12.67;;;;;;;;5073517;27;51340;-58
2021/07/20 01:02:13;;;;;;;;;11.33;10.33;;;;;;;;5074822;28;51547;-57
2021/07/20 01:04:38;;;;;;;;;13.33;12.33;;;;;;;;5074926;27;52744;-58
2021/07/20 01:07:05;;;;;;;;;12.33;12.33;;;;;;;;5074710;28;50946;-57
2021/07/20 01:09:31;;;;;;;;;11.67;11.67;;;;;;;;5074060;27;51106;-58
2021/07/20 01:11:56;;;;;;;;;15.33;14.33;;;;;;;;5074931;27;51208;-58
2021/07/20 01:14:21;;;;;;;;;13.00;13.00;;;;;;;;5059067;27;51029;-58
2021/07/20 01:16:47;;;;;;;;;14.67;13.67;;;;;;;;5072971;28;50981;-58
2021/07/20 01:19:13;;;;;;;;;15.00;14.00;;;;;;;;5073863;28;50918;-58
2021/07/20 01:21:39;;;;;;;;;14.33;14.33;;;;;;;;5075167;27;51042;-58
2021/07/20 01:24:22;;;;;;;;;14.33;14.00;;;;;;;;5073167;28;51805;-57
2021/07/20 01:26:47;;;;;;;;;14.67;14.67;;;;;;;;5062240;28;50977;-58
2021/07/20 01:29:13;;;;;;;;;15.67;14.00;;;;;;;;5071349;27;51050;-57
2021/07/20 01:31:39;;;;;;;;;14.67;14.33;;;;;;;;5074615;27;51294;-57
2021/07/20 01:34:06;;;;;;;;;12.33;12.33;;;;;;;;5065198;28;51224;-57
2021/07/20 01:36:32;;;;;;;;;14.00;13.67;;;;;;;;5072825;28;51116;-57
2021/07/20 01:38:57;;;;;;;;;19.00;17.67;;;;;;;;5074664;27;50939;-57
2021/07/20 01:41:23;;;;;;;;;17.50;17.00;;;;;;;;5066855;27;51138;-59
2021/07/20 01:43:51;;;;;;;;;16.33;16.33;;;;;;;;5072006;27;51041;-59
2021/07/20 01:46:17;;;;;;;;;16.00;15.67;;;;;;;;5074479;27;51026;-59
2021/07/20 01:48:43;;;;;;;;;16.00;16.00;;;;;;;;5072217;27;51197;-59
2021/07/20 01:51:09;;;;;;;;;13.67;13.67;;;;;;;;5073157;27;51180;-58
2021/07/20 01:53:35;;;;;;;;;15.33;15.33;;;;;;;;5074289;27;52306;-58
2021/07/20 01:56:01;;;;;;;;;16.67;15.67;;;;;;;;5070233;27;52727;-57
2021/07/20 01:58:26;;;;;;;;;16.00;15.67;;;;;;;;5074496;27;50990;-57
2021/07/20 02:00:54;;;;;;;;;19.00;17.67;;;;;;;;5074383;27;51334;-58
2021/07/20 02:03:44;;;;;;;;;13.00;12.67;;;;;;;;5073688;27;51871;-59
2021/07/20 02:08:55;;;;;;;;;16.00;16.00;;;;;;;;5061345;28;52154;-58
2021/07/20 02:11:28;;;;;;;;;16.50;16.50;;;;;;;;5073888;27;52100;-58
2021/07/20 02:13:56;;;;;;;;;16.00;15.33;;;;;;;;5066438;28;52841;-59
2021/07/20 02:16:29;;;;;;;;;17.67;16.33;;;;;;;;5066126;27;51189;-59
2021/07/20 02:18:58;;;;;;;;;16.50;15.75;;;;;;;;5074221;27;51283;-58
2021/07/20 02:21:24;;;;;;;;;18.50;16.50;;;;;;;;5042179;28;51086;-58
2021/07/20 02:23:50;;;;;;;;;16.00;14.67;;;;;;;;5073879;28;51964;-59
2021/07/20 02:26:15;;;;;;;;;15.00;14.33;;;;;;;;5062326;27;51117;-59
2021/07/20 02:28:41;;;;;;;;;18.33;18.00;;;;;;;;5073794;27;50966;-58
2021/07/20 02:31:08;;;;;;;;;19.25;18.75;;;;;;;;5073933;27;51366;-57
2021/07/20 02:33:34;;;;;;;;;16.33;15.33;;;;;;;;5073062;27;52234;-58
2021/07/20 02:35:59;;;;;;;;;15.67;15.67;;;;;;;;5068604;27;51119;-58
2021/07/20 02:38:25;;;;;;;;;19.00;19.00;;;;;;;;5073556;27;50957;-57
2021/07/20 02:40:50;;;;;;;;;18.25;18.00;;;;;;;;5074041;27;51335;-58
2021/07/20 02:43:18;;;;;;;;;18.00;17.00;;;;;;;;5073871;27;51965;-57
2021/07/20 02:45:43;;;;;;;;;16.33;15.00;;;;;;;;5064137;28;51125;-58
2021/07/20 02:48:08;;;;;;;;;16.00;15.67;;;;;;;;5071834;27;50961;-58
2021/07/20 02:50:34;;;;;;;;;17.25;16.25;;;;;;;;5073735;27;50985;-58
2021/07/20 02:53:00;;;;;;;;;17.00;17.00;;;;;;;;5073345;27;51654;-58
2021/07/20 02:55:26;;;;;;;;;19.25;17.00;;;;;;;;5072229;27;51085;-58
2021/07/20 02:57:52;;;;;;;;;19.00;17.50;;;;;;;;5072423;27;50930;-58
2021/07/20 03:00:17;;;;;;;;;18.50;16.75;;;;;;;;5073265;28;50982;-57
2021/07/20 03:02:44;;;;;;;;;16.50;16.25;;;;;;;;5072047;28;51904;-57
2021/07/20 03:05:10;;;;;;;;;18.50;18.25;;;;;;;;5071750;27;50982;-57
2021/07/20 03:07:36;;;;;;;;;19.25;19.25;;;;;;;;5069795;28;51018;-57
2021/07/20 03:10:02;;;;;;;;;21.00;20.00;;;;;;;;5073123;27;51544;-57
2021/07/20 03:12:30;;;;;;;;;15.67;15.33;;;;;;;;5073098;27;52977;-57
2021/07/20 03:14:55;;;;;;;;;16.50;16.50;;;;;;;;5072757;27;51061;-58
2021/07/20 03:17:22;;;;;;;;;19.25;18.50;;;;;;;;5064426;27;51123;-58
2021/07/20 03:19:48;;;;;;;;;15.75;15.00;;;;;;;;5068291;28;51288;-59
2021/07/20 03:22:15;;;;;;;;;14.75;14.50;;;;;;;;5072090;27;52134;-56
2021/07/20 03:24:42;;;;;;;;;20.67;20.00;;;;;;;;5067700;27;51115;-57
2021/07/20 03:27:08;;;;;;;;;20.75;19.50;;;;;;;;5065291;28;51076;-57
2021/07/20 03:29:40;;;;;;;;;14.33;14.33;;;;;;;;5072925;27;51073;-57
2021/07/20 03:32:06;;;;;;;;;19.33;17.00;;;;;;;;5067267;28;52970;-57
2021/07/20 03:34:32;;;;;;;;;15.25;15.25;;;;;;;;5072528;27;51119;-57
2021/07/20 03:36:57;;;;;;;;;18.00;18.00;;;;;;;;5071213;27;50847;-57
2021/07/20 03:39:23;;;;;;;;;14.33;14.33;;;;;;;;5072916;27;50996;-57
2021/07/20 03:41:48;;;;;;;;;18.33;16.00;;;;;;;;5064794;27;50988;-57
2021/07/20 03:44:14;;;;;;;;;15.00;14.33;;;;;;;;5070027;28;51174;-58
2021/07/20 03:46:40;;;;;;;;;17.33;17.00;;;;;;;;5072623;27;51095;-57
2021/07/20 03:49:06;;;;;;;;;19.00;18.33;;;;;;;;5072949;27;51154;-57
2021/07/20 03:51:31;;;;;;;;;16.67;16.33;;;;;;;;5070448;28;51923;-57
2021/07/20 03:53:58;;;;;;;;;18.33;17.67;;;;;;;;5072632;27;50917;-58
2021/07/20 03:56:23;;;;;;;;;14.00;13.00;;;;;;;;5070671;27;51036;-58
2021/07/20 03:58:49;;;;;;;;;14.67;14.67;;;;;;;;5073200;27;51067;-58
2021/07/20 04:01:15;;;;;;;;;17.00;16.67;;;;;;;;5077571;27;52423;-58
2021/07/20 04:03:41;;;;;;;;;18.25;17.75;;;;;;;;5079235;27;51501;-58
2021/07/20 04:06:11;;;;;;;;;16.50;15.50;;;;;;;;5079296;27;51159;-58
2021/07/20 04:08:37;;;;;;;;;14.00;14.00;;;;;;;;5079617;27;51326;-58
2021/07/20 04:11:03;;;;;;;;;16.33;16.33;;;;;;;;5075457;27;52056;-58
2021/07/20 04:13:29;;;;;;;;;18.25;17.25;;;;;;;;5078781;27;51097;-58
2021/07/20 04:15:56;;;;;;;;;15.50;15.50;;;;;;;;5079072;27;51230;-56
2021/07/20 04:18:22;;;;;;;;;19.00;19.00;;;;;;;;5068569;27;51151;-58
2021/07/20 04:20:48;;;;;;;;;19.25;18.00;;;;;;;;5077529;28;51875;-57
2021/07/20 04:23:14;;;;;;;;;18.50;17.50;;;;;;;;5077464;28;51129;-57
2021/07/20 04:25:42;;;;;;;;;19.00;18.67;;;;;;;;5076138;27;50988;-58
2021/07/20 04:28:07;;;;;;;;;17.25;16.75;;;;;;;;5078820;27;50889;-57
2021/07/20 04:30:34;;;;;;;;;15.00;15.00;;;;;;;;5075576;28;51744;-57
2021/07/20 04:32:59;;;;;;;;;17.67;17.00;;;;;;;;5074748;27;51100;-58
2021/07/20 04:35:25;;;;;;;;;18.75;18.25;;;;;;;;5077838;27;51025;-58
2021/07/20 04:37:51;;;;;;;;;18.75;18.75;;;;;;;;5077759;28;51240;-58
2021/07/20 04:40:17;;;;;;;;;22.00;21.00;;;;;;;;5077887;27;51094;-58
2021/07/20 04:42:43;;;;;;;;;19.00;19.00;;;;;;;;5076249;27;51330;-58
2021/07/20 04:45:09;;;;;;;;;20.75;19.75;;;;;;;;5078512;27;51138;-58
2021/07/20 04:47:36;;;;;;;;;21.50;19.75;;;;;;;;5078870;27;51003;-58
2021/07/20 04:50:03;;;;;;;;;23.00;22.25;;;;;;;;5078674;27;51015;-58
2021/07/20 04:52:28;;;;;;;;;25.00;21.75;;;;;;;;5075842;27;51143;-57
2021/07/20 04:54:54;;;;;;;;;24.00;23.00;;;;;;;;5072053;27;51798;-57
2021/07/20 04:57:19;;;;;;;;;23.25;22.50;;;;;;;;5078514;27;51354;-57
2021/07/20 04:59:45;;;;;;;;;27.00;24.75;;;;;;;;5077801;27;51759;-59
2021/07/20 05:02:13;;;;;;;;;24.00;21.75;;;;;;;;5077000;27;51141;-59
2021/07/20 05:04:39;;;;;;;;;25.50;25.25;;;;;;;;5073612;28;51156;-58
2021/07/20 05:07:05;;;;;;;;;20.00;20.00;;;;;;;;5075777;28;51044;-59
2021/07/20 05:09:30;;;;;;;;;22.50;22.25;;;;;;;;5077037;28;51979;-59
2021/07/20 05:11:56;;;;;;;;;22.75;22.50;;;;;;;;5071966;28;51046;-58
2021/07/20 05:14:21;;;;;;;;;24.25;22.25;;;;;;;;5074651;28;51184;-57
2021/07/20 05:16:48;;;;;;;;;21.25;21.00;;;;;;;;5072880;28;51294;-57
2021/07/20 05:19:13;;;;;;;;;24.00;23.00;;;;;;;;5074764;27;52214;-57
2021/07/20 05:21:39;;;;;;;;;23.50;23.50;;;;;;;;5074803;27;50962;-57
2021/07/20 05:24:06;;;;;;;;;24.75;24.00;;;;;;;;5075224;27;51133;-57
2021/07/20 05:26:32;;;;;;;;;26.75;25.50;;;;;;;;5068454;27;51217;-57
2021/07/20 05:28:57;;;;;;;;;27.25;24.75;;;;;;;;5061069;27;51145;-57
2021/07/20 05:31:24;;;;;;;;;27.50;25.75;;;;;;;;5070281;28;51254;-58
2021/07/20 05:33:50;;;;;;;;;29.00;27.00;;;;;;;;5067740;27;51138;-58
2021/07/20 05:36:15;;;;;;;;;21.25;20.00;;;;;;;;5062519;27;51340;-57
2021/07/20 05:38:40;;;;;;;;;23.25;23.25;;;;;;;;5064059;27;52111;-58
2021/07/20 05:41:05;;;;;;;;;29.50;27.75;;;;;;;;5073020;27;50966;-58
2021/07/20 05:43:32;;;;;;;;;26.00;25.50;;;;;;;;5068112;27;50891;-58
2021/07/20 05:45:58;;;;;;;;;27.00;25.00;;;;;;;;5066385;28;51063;-58
2021/07/20 05:48:24;;;;;;;;;27.50;27.25;;;;;;;;5057765;27;52467;-58
2021/07/20 05:50:54;;;;;;;;;29.50;26.75;;;;;;;;5075903;27;50898;-58
2021/07/20 05:53:21;;;;;;;;;25.25;24.75;;;;;;;;5066918;28;50985;-58
2021/07/20 05:55:50;;;;;;;;;28.75;28.25;;;;;;;;5074271;27;51249;-58
2021/07/20 05:58:17;;;;;;;;;29.00;28.25;;;;;;;;5060033;27;52718;-58
2021/07/20 06:00:42;;;;;;;;;27.50;26.75;;;;;;;;5061600;27;51092;-58
2021/07/20 06:03:11;;;;;;;;;29.00;26.50;;;;;;;;5072115;27;51360;-58
2021/07/20 06:05:37;;;;;;;;;27.25;25.25;;;;;;;;5071290;28;51043;-59
2021/07/20 06:08:02;;;;;;;;;28.25;28.25;;;;;;;;5073626;27;51681;-57
2021/07/20 06:10:28;;;;;;;;;29.25;28.75;;;;;;;;5073857;27;51012;-58
2021/07/20 06:12:57;;;;;;;;;29.75;26.75;;;;;;;;5069998;27;51268;-58
2021/07/20 06:15:23;;;;;;;;;28.00;26.50;;;;;;;;5073620;27;51181;-59
2021/07/20 06:17:48;;;;;;;;;29.25;28.25;;;;;;;;5073390;27;52548;-58
2021/07/20 06:20:14;;;;;;;;;27.50;27.25;;;;;;;;5073524;28;50875;-58
2021/07/20 06:22:43;;;;;;;;;30.50;28.00;;;;;;;;5072539;27;51165;-58
2021/07/20 06:25:09;;;;;;;;;28.75;27.50;;;;;;;;5073948;28;51052;-58
2021/07/20 06:27:35;;;;;;;;;29.75;26.00;;;;;;;;5072954;27;52077;-58
2021/07/20 06:30:01;;;;;;;;;28.75;28.00;;;;;;;;5072962;27;51091;-58
2021/07/20 06:32:27;;;;;;;;;29.00;29.00;;;;;;;;5071986;28;51252;-58
2021/07/20 06:34:52;;;;;;;;;29.50;27.75;;;;;;;;5073084;27;51111;-58
2021/07/20 06:37:19;;;;;;;;;29.25;27.25;;;;;;;;5072966;27;52146;-57
2021/07/20 06:39:44;;;;;;;;;32.00;30.50;;;;;;;;5073032;27;51130;-59
2021/07/20 06:42:13;;;;;;;;;30.25;28.25;;;;;;;;5073022;27;51177;-59
2021/07/20 06:44:39;;;;;;;;;29.00;27.50;;;;;;;;5073045;28;51044;-59
2021/07/20 06:47:05;;;;;;;;;27.50;26.75;;;;;;;;5072764;27;52321;-59
2021/07/20 06:49:30;;;;;;;;;28.00;28.00;;;;;;;;5072788;27;51103;-59
2021/07/20 06:51:56;;;;;;;;;29.25;28.25;;;;;;;;5072884;27;51127;-58
2021/07/20 06:54:21;;;;;;;;;29.50;28.75;;;;;;;;5072720;27;50968;-59
2021/07/20 06:56:47;;;;;;;;;28.25;27.00;;;;;;;;5072715;27;51228;-59
2021/07/20 06:59:13;;;;;;;;;28.00;26.75;;;;;;;;5072533;28;50985;-59
2021/07/20 07:01:40;;;;;;;;;27.00;26.50;;;;;;;;5072229;27;51149;-59
2021/07/20 07:04:11;;;;;;;;;29.50;29.00;;;;;;;;5071850;28;51202;-59
2021/07/20 07:06:40;;;;;;;;;28.50;27.00;;;;;;;;5072194;27;51127;-58
2021/07/20 07:09:06;;;;;;;;;35.75;31.75;;;;;;;;5072107;27;51050;-59
2021/07/20 07:11:31;;;;;;;;;31.75;30.50;;;;;;;;5072088;28;50922;-59
2021/07/20 07:13:57;;;;;;;;;29.75;28.75;;;;;;;;5072506;27;51191;-58
2021/07/20 07:16:23;;;;;;;;;34.50;29.50;;;;;;;;5071593;27;51121;-58
2021/07/20 07:18:48;;;;;;;;;35.00;32.25;;;;;;;;5071889;27;50867;-58
2021/07/20 07:21:15;;;;;;;;;32.50;30.25;;;;;;;;5070961;28;50910;-58
2021/07/20 07:23:42;;;;;;;;;32.75;29.25;;;;;;;;5072924;27;51279;-59
2021/07/20 07:26:08;;;;;;;;;32.50;30.50;;;;;;;;5070562;28;53746;-59
2021/07/20 07:28:34;;;;;;;;;30.50;29.25;;;;;;;;5070766;28;51009;-59
2021/07/20 07:31:00;;;;;;;;;30.00;29.50;;;;;;;;5072157;27;51034;-58
2021/07/20 07:33:25;;;;;;;;;34.25;30.50;;;;;;;;5072374;27;51038;-58
2021/07/20 07:35:50;;;;;;;;;33.00;30.25;;;;;;;;5071637;27;51018;-58
2021/07/20 07:38:17;;;;;;;;;32.00;29.75;;;;;;;;5070592;28;50992;-58
2021/07/20 07:40:45;;;;;;;;;35.25;31.50;;;;;;;;5071907;27;51164;-59
2021/07/20 07:43:13;;;;;;;;;31.50;29.75;;;;;;;;5072079;27;51137;-59
2021/07/20 07:45:38;;;;;;;;;28.50;27.00;;;;;;;;5071223;27;51684;-59
2021/07/20 07:48:04;;;;;;;;;32.00;30.00;;;;;;;;5072381;27;50981;-59
2021/07/20 07:50:29;;;;;;;;;36.50;32.50;;;;;;;;5070775;28;50988;-58
2021/07/20 07:52:55;;;;;;;;;30.50;29.25;;;;;;;;5072427;27;51303;-59
2021/07/20 07:55:22;;;;;;;;;34.00;31.75;;;;;;;;5071908;27;51769;-58
2021/07/20 07:57:47;;;;;;;;;35.50;31.50;;;;;;;;5070833;28;50970;-58
2021/07/20 08:00:13;;;;;;;;;37.75;32.75;;;;;;;;5071701;27;51172;-58
2021/07/20 08:02:39;;;;;;;;;40.25;34.25;;;;;;;;5072443;27;50903;-58
2021/07/20 08:05:05;;;;;;;;;41.00;35.00;;;;;;;;5071459;28;50967;-57
2021/07/20 08:07:31;;;;;;;;;36.25;32.75;;;;;;;;5071895;28;51057;-57
2021/07/20 08:09:57;;;;;;;;;41.50;36.25;;;;;;;;5070469;28;51045;-58
2021/07/20 08:12:23;;;;;;;;;36.00;32.50;;;;;;;;5061392;27;51327;-58
2021/07/20 08:14:49;;;;;;;;;35.50;31.50;;;;;;;;5071280;28;51331;-58
2021/07/20 08:17:14;;;;;;;;;28.25;27.75;;;;;;;;5072096;27;51092;-58
2021/07/20 08:19:40;;;;;;;;;32.25;30.00;;;;;;;;5072088;27;50953;-58
2021/07/20 08:22:14;;;;;;;;;36.75;31.50;;;;;;;;5072553;27;51295;-60
2021/07/20 08:24:47;;;;;;;;;31.75;29.50;;;;;;;;5071450;27;51273;-59
2021/07/20 08:27:19;;;;;;;;;33.50;30.75;;;;;;;;5071867;27;51056;-59
2021/07/20 08:29:46;;;;;;;;;25.00;24.25;;;;;;;;5071518;27;51335;-59
2021/07/20 08:32:14;;;;;;;;;24.25;23.25;;;;;;;;5072009;27;51331;-59
2021/07/20 08:34:43;;;;;;;;;24.00;24.00;;;;;;;;5071258;27;51804;-58
2021/07/20 08:37:09;;;;;;;;;24.75;24.75;;;;;;;;5071396;27;50984;-58
2021/07/20 08:39:34;;;;;;;;;24.50;23.50;;;;;;;;5071187;27;50882;-58
2021/07/20 08:42:08;;;;;;;;;25.00;22.25;;;;;;;;5071324;27;50920;-59
2021/07/20 08:44:50;;;;;;;;;25.25;25.00;;;;;;;;5071337;27;52142;-59
2021/07/20 08:47:27;;;;;;;;;20.25;18.75;;;;;;;;5073307;27;50915;-59
2021/07/20 08:49:55;;;;;;;;;24.00;23.00;;;;;;;;5074889;27;50819;-59
2021/07/20 08:52:37;;;;;;;;;23.75;23.00;;;;;;;;5075506;27;51347;-59
2021/07/20 08:55:07;;;;;;;;;18.25;18.00;;;;;;;;5074458;28;50887;-58
2021/07/20 08:57:34;;;;;;;;;28.00;27.00;;;;;;;;5073481;28;51065;-59
2021/07/20 09:00:05;;;;;;;;;22.00;21.25;;;;;;;;5074158;27;51019;-58
2021/07/20 09:02:34;;;;;;;;;24.75;23.25;;;;;;;;5074863;27;51234;-59
2021/07/20 09:05:08;;;;;;;;;24.75;24.25;;;;;;;;5074321;27;53635;-60
2021/07/20 09:07:42;;;;;;;;;21.25;21.25;;;;;;;;5075305;27;51029;-59
2021/07/20 09:10:10;;;;;;;;;21.00;21.00;;;;;;;;5073569;28;51048;-59
2021/07/20 09:12:37;;;;;;;;;21.00;21.00;;;;;;;;5073523;27;51421;-58
2021/07/20 09:15:13;;;;;;;;;22.50;22.00;;;;;;;;5074313;27;51958;-59
2021/07/20 09:17:45;;;;;;;;;21.75;21.25;;;;;;;;5073381;27;51151;-58
2021/07/20 09:20:10;;;;;;;;;19.50;19.25;;;;;;;;5074572;27;51047;-59
2021/07/20 09:22:47;;;;;;;;;25.00;23.25;;;;;;;;5074853;27;51142;-59
2021/07/20 09:25:30;;;;;;;;;22.00;21.00;;;;;;;;5074642;27;50869;-60
2021/07/20 09:28:04;;;;;;;;;19.25;18.75;;;;;;;;5074665;27;50893;-59
2021/07/20 09:30:35;;;;;;;;;20.50;19.75;;;;;;;;5074301;28;50961;-59
2021/07/20 09:33:05;;;;;;;;;21.25;20.00;;;;;;;;5074114;27;51315;-59
2021/07/20 09:35:52;;;;;;;;;21.75;21.25;;;;;;;;5074175;27;51865;-58
2021/07/20 09:38:29;;;;;;;;;19.25;19.25;;;;;;;;5074362;27;50859;-60
2021/07/20 09:41:13;;;;;;;;;17.75;17.00;;;;;;;;5074044;27;50914;-57
2021/07/20 09:43:45;;;;;;;;;20.25;20.25;;;;;;;;5074269;28;52110;-58
2021/07/20 09:46:16;;;;;;;;;20.50;19.25;;;;;;;;5073557;27;53318;-58
2021/07/20 09:48:47;;;;;;;;;23.25;21.75;;;;;;;;5073659;27;51160;-59
2021/07/20 09:51:41;;;;;;;;;19.75;19.25;;;;;;;;5074322;27;51199;-59
2021/07/20 09:54:11;;;;;;;;;22.75;22.50;;;;;;;;5074006;27;51254;-59
2021/07/20 09:57:00;;;;;;;;;22.00;19.00;;;;;;;;5071980;27;51909;-59
2021/07/20 09:59:37;;;;;;;;;25.25;24.50;;;;;;;;5070465;28;51190;-59
2021/07/20 10:02:08;;;;;;;;;23.00;20.50;;;;;;;;5073666;27;50918;-59
2021/07/20 10:05:03;;;;;;;;;22.75;20.50;;;;;;;;5074000;27;51251;-59
2021/07/20 10:07:42;;;;;;;;;24.75;24.25;;;;;;;;5068291;27;51680;-59
2021/07/20 10:10:12;;;;;;;;;15.25;15.25;;;;;;;;5073040;27;50830;-59
2021/07/20 10:12:37;;;;;;;;;23.00;22.75;;;;;;;;5070258;27;51336;-59
2021/07/20 10:15:05;;;;;;;;;25.20;24.20;;;;;;;;5073137;27;51127;-59
2021/07/20 10:17:35;;;;;;;;;24.50;23.50;;;;;;;;5073123;27;51821;-59
2021/07/20 10:20:08;;;;;;;;;25.75;25.00;;;;;;;;5073002;27;51013;-59
2021/07/20 10:22:39;;;;;;;;;24.50;24.00;;;;;;;;5066308;28;51117;-59
2021/07/20 10:25:09;;;;;;;;;25.25;23.25;;;;;;;;5073371;27;50999;-58
2021/07/20 10:27:35;;;;;;;;;27.00;25.50;;;;;;;;5071985;27;52049;-58
2021/07/20 10:30:06;;;;;;;;;29.00;27.75;;;;;;;;5071914;28;50979;-58
2021/07/20 10:32:38;;;;;;;;;25.50;23.50;;;;;;;;5072013;27;50882;-59
2021/07/20 10:35:06;;;;;;;;;26.75;25.75;;;;;;;;5072594;27;51008;-58
2021/07/20 10:37:36;;;;;;;;;25.00;25.00;;;;;;;;5056909;28;53070;-58
2021/07/20 10:40:07;;;;;;;;;24.50;24.50;;;;;;;;5072998;28;51130;-60
2021/07/20 10:42:47;;;;;;;;;21.75;20.75;;;;;;;;5070333;28;51009;-59
2021/07/20 10:45:14;;;;;;;;;24.50;22.25;;;;;;;;5072071;27;51003;-58
2021/07/20 10:47:39;;;;;;;;;24.25;23.75;;;;;;;;5071752;28;51982;-58
2021/07/20 10:50:13;;;;;;;;;22.50;21.25;;;;;;;;5072428;27;51140;-58
2021/07/20 10:52:57;;;;;;;;;20.00;19.50;;;;;;;;5072105;27;51002;-58
2021/07/20 10:55:25;;;;;;;;;21.25;20.00;;;;;;;;5072445;28;50984;-59
2021/07/20 10:58:04;;;;;;;;;20.25;19.75;;;;;;;;5071863;27;51863;-59
2021/07/20 11:00:40;;;;;;;;;21.00;21.00;;;;;;;;5071531;27;50892;-59
2021/07/20 11:03:11;;;;;;;;;28.50;27.00;;;;;;;;5072386;27;51068;-59
2021/07/20 11:05:37;;;;;;;;;22.00;22.00;;;;;;;;5072404;27;50957;-59
2021/07/20 11:08:04;;;;;;;;;21.75;21.75;;;;;;;;5072075;27;51063;-57
2021/07/20 11:10:33;;;;;;;;;22.50;21.75;;;;;;;;5070884;27;50916;-58
2021/07/20 11:13:02;;;;;;;;;18.25;18.25;;;;;;;;5069985;28;51012;-58
2021/07/20 11:15:29;;;;;;;;;20.00;20.00;;;;;;;;5071848;27;51045;-58
2021/07/20 11:17:55;;;;;;;;;19.75;19.50;;;;;;;;5071467;27;50986;-57
2021/07/20 11:20:21;;;;;;;;;22.25;21.25;;;;;;;;5071701;27;50940;-58
2021/07/20 11:22:48;;;;;;;;;21.75;21.00;;;;;;;;5071675;27;50980;-59
2021/07/20 11:25:15;;;;;;;;;22.25;22.00;;;;;;;;5070991;28;51115;-59
2021/07/20 11:27:44;;;;;;;;;20.75;20.50;;;;;;;;5071598;28;52223;-59
2021/07/20 11:30:11;;;;;;;;;20.00;19.50;;;;;;;;5071271;27;50960;-60
2021/07/20 11:32:36;;;;;;;;;16.75;15.00;;;;;;;;5071461;27;50933;-59
2021/07/20 11:35:04;;;;;;;;;18.00;17.75;;;;;;;;5072062;27;50927;-59
2021/07/20 11:37:33;;;;;;;;;17.25;17.25;;;;;;;;5071484;27;51194;-59
2021/07/20 11:40:02;;;;;;;;;14.50;14.00;;;;;;;;5071710;27;51017;-59
2021/07/20 11:42:32;;;;;;;;;18.25;17.25;;;;;;;;5071075;27;51019;-59
2021/07/20 11:45:01;;;;;;;;;22.75;21.50;;;;;;;;5069800;28;50955;-58
2021/07/20 11:47:29;;;;;;;;;19.25;17.25;;;;;;;;5071329;27;53086;-58
2021/07/20 11:49:58;;;;;;;;;22.50;21.00;;;;;;;;5071805;27;50962;-59
2021/07/20 11:52:32;;;;;;;;;20.50;20.50;;;;;;;;5071757;27;51303;-59
2021/07/20 11:55:19;;;;;;;;;20.50;20.50;;;;;;;;5071861;28;51101;-59
2021/07/20 11:57:59;;;;;;;;;26.50;23.50;;;;;;;;5071196;27;52904;-59
2021/07/20 12:00:54;;;;;;;;;15.25;14.25;;;;;;;;5070572;28;51143;-58
2021/07/20 12:03:38;;;;;;;;;23.25;20.25;;;;;;;;5052767;28;51085;-59
2021/07/20 12:06:03;;;;;;;;;20.25;19.50;;;;;;;;5071627;28;52101;-59
2021/07/20 12:08:32;;;;;;;;;21.75;20.50;;;;;;;;5069300;28;51931;-59
2021/07/20 12:10:58;;;;;;;;;25.00;23.50;;;;;;;;5071465;27;50902;-59
2021/07/20 12:13:23;;;;;;;;;20.25;19.50;;;;;;;;5065903;27;51020;-58
2021/07/20 12:15:52;;;;;;;;;16.75;16.75;;;;;;;;5062752;28;50883;-59
2021/07/20 12:18:18;;;;;;;;;18.50;18.25;;;;;;;;5070876;27;52801;-59
2021/07/20 12:20:43;;;;;;;;;21.50;18.75;;;;;;;;5072790;27;50998;-58
2021/07/20 12:23:10;;;;;;;;;18.00;18.00;;;;;;;;5074794;27;51114;-58
2021/07/20 12:25:35;;;;;;;;;21.25;20.00;;;;;;;;5075336;27;51025;-59
2021/07/20 12:28:02;;;;;;;;;22.75;21.25;;;;;;;;5074286;28;51256;-59
2021/07/20 12:30:28;;;;;;;;;21.50;19.75;;;;;;;;5074852;27;50968;-59
2021/07/20 12:32:53;;;;;;;;;24.50;23.75;;;;;;;;5074538;27;50854;-60
2021/07/20 12:35:20;;;;;;;;;25.25;24.50;;;;;;;;5073549;27;51340;-58
2021/07/20 12:37:57;;;;;;;;;22.50;21.50;;;;;;;;5074073;28;52288;-58
2021/07/20 12:40:22;;;;;;;;;17.50;17.25;;;;;;;;5074806;27;51092;-58
2021/07/20 12:42:48;;;;;;;;;16.00;15.75;;;;;;;;5073951;27;51160;-59
2021/07/20 12:45:14;;;;;;;;;20.75;18.50;;;;;;;;5074888;27;50979;-58
2021/07/20 12:47:42;;;;;;;;;22.00;21.50;;;;;;;;5072381;28;51203;-58
2021/07/20 12:50:08;;;;;;;;;22.75;21.25;;;;;;;;5073213;28;50898;-58
2021/07/20 12:52:36;;;;;;;;;19.75;18.75;;;;;;;;5073121;28;50893;-59
2021/07/20 12:55:05;;;;;;;;;19.25;18.75;;;;;;;;5074728;27;51193;-59
2021/07/20 12:57:30;;;;;;;;;20.50;19.25;;;;;;;;5074325;27;53342;-59
2021/07/20 12:59:55;;;;;;;;;21.75;20.75;;;;;;;;5073592;27;51108;-59
2021/07/20 13:02:21;;;;;;;;;15.75;15.75;;;;;;;;5074244;27;51081;-59
2021/07/20 13:04:48;;;;;;;;;19.25;18.75;;;;;;;;5074658;28;51190;-58
2021/07/20 13:07:15;;;;;;;;;19.75;19.25;;;;;;;;5072927;28;53021;-58
2021/07/20 13:09:42;;;;;;;;;15.00;14.25;;;;;;;;5074347;27;51153;-58
2021/07/20 13:12:07;;;;;;;;;18.75;18.00;;;;;;;;5073972;27;50994;-58
2021/07/20 13:14:35;;;;;;;;;16.75;16.75;;;;;;;;5073916;27;51462;-58
2021/07/20 13:17:00;;;;;;;;;17.25;17.25;;;;;;;;5074202;27;52150;-58
2021/07/20 13:19:25;;;;;;;;;14.50;14.50;;;;;;;;5073977;27;51141;-58
2021/07/20 13:21:51;;;;;;;;;17.00;15.75;;;;;;;;5074490;28;51024;-58
2021/07/20 13:24:16;;;;;;;;;15.00;14.67;;;;;;;;5074273;27;51225;-59
2021/07/20 13:26:41;;;;;;;;;17.00;16.33;;;;;;;;5074149;27;51933;-59
2021/07/20 13:29:08;;;;;;;;;20.67;19.33;;;;;;;;5073812;28;51001;-59
2021/07/20 13:31:36;;;;;;;;;14.33;13.33;;;;;;;;5073099;27;50886;-58
2021/07/20 13:34:02;;;;;;;;;15.75;13.50;;;;;;;;5073721;27;51049;-59
2021/07/20 13:36:31;;;;;;;;;17.75;17.25;;;;;;;;5073720;27;51225;-58
2021/07/20 13:38:57;;;;;;;;;18.33;16.33;;;;;;;;5073144;27;51187;-58
2021/07/20 13:41:23;;;;;;;;;17.75;17.50;;;;;;;;5073814;27;50895;-58
2021/07/20 13:43:50;;;;;;;;;19.25;18.50;;;;;;;;5073692;27;51433;-59
2021/07/20 13:46:16;;;;;;;;;14.00;13.00;;;;;;;;5073608;27;51909;-59
2021/07/20 13:48:44;;;;;;;;;15.33;15.33;;;;;;;;5073307;27;50950;-59
2021/07/20 13:51:10;;;;;;;;;11.67;11.67;;;;;;;;5073909;27;50996;-59
2021/07/20 13:53:36;;;;;;;;;13.67;13.67;;;;;;;;5071997;28;51371;-58
2021/07/20 13:56:23;;;;;;;;;14.67;12.33;;;;;;;;5073405;27;53050;-58
2021/07/20 13:58:50;;;;;;;;;15.75;14.00;;;;;;;;5073019;27;51178;-59
2021/07/20 14:01:16;;;;;;;;;14.67;14.67;;;;;;;;5060897;27;50917;-58
2021/07/20 14:03:44;;;;;;;;;15.00;14.00;;;;;;;;5071976;28;51079;-61
2021/07/20 14:06:11;;;;;;;;;7.67;6.00;;;;;;;;5072827;27;51242;-59
2021/07/20 14:08:37;;;;;;;;;14.67;14.67;;;;;;;;5072813;27;50868;-58
2021/07/20 14:11:02;;;;;;;;;15.00;13.67;;;;;;;;5073321;27;50808;-59
2021/07/20 14:13:28;;;;;;;;;13.00;13.00;;;;;;;;5073479;27;51343;-58
2021/07/20 14:15:54;;;;;;;;;12.00;11.67;;;;;;;;5069819;27;51198;-58
2021/07/20 14:18:21;;;;;;;;;12.00;12.00;;;;;;;;5073510;27;50979;-59
2021/07/20 14:20:47;;;;;;;;;11.00;11.00;;;;;;;;5073213;28;50955;-61
2021/07/20 14:23:12;;;;;;;;;15.00;13.33;;;;;;;;5073454;27;51385;-59